Time;durP1;ratioP1;P1;durP2;ratioP2;P2;SDS_P1;SDS_P2;PMS_P1;PMS_P2;Temp;Humidity;BMP_temperature;BMP_pressure;BME280_temperature;BME280_humidity;BME280_pressure;Samples;Min_cycle;Max_cycle;Signal;HPM_P1;HPM_P2
2020/12/27 00:01:40;;;;;;;9.00;5.20;;;;;;;0.75;70.09;100528.75;5048511;28;20143;-74
2020/12/27 00:04:06;;;;;;;9.40;5.07;;;;;;;0.73;70.26;100520.03;5035355;28;20033;-74
2020/12/27 00:06:31;;;;;;;7.93;5.30;;;;;;;0.72;70.23;100513.06;5053480;28;20044;-74
2020/12/27 00:08:57;;;;;;;9.47;5.60;;;;;;;0.63;70.57;100503.28;5053211;28;20038;-74
2020/12/27 00:11:22;;;;;;;10.23;5.13;;;;;;;0.65;70.80;100495.50;5053423;28;20025;-74
2020/12/27 00:13:48;;;;;;;11.60;5.40;;;;;;;0.67;70.12;100499.03;5035224;28;20506;-74
2020/12/27 00:16:13;;;;;;;9.93;5.43;;;;;;;0.71;70.14;100492.22;5053335;28;20396;-74
2020/12/27 00:18:38;;;;;;;10.70;5.60;;;;;;;0.69;70.44;100481.81;5053033;28;20141;-74
2020/12/27 00:21:11;;;;;;;10.47;5.63;;;;;;;0.79;70.25;100478.69;5053222;28;20076;-74
2020/12/27 00:23:36;;;;;;;;;;;;;;;0.85;70.07;100478.00;5053313;28;20033;-74
2020/12/27 00:26:08;;;;;;;10.53;5.30;;;;;;;0.98;70.09;100474.94;5053151;28;19958;-74
2020/12/27 00:28:33;;;;;;;9.73;5.30;;;;;;;1.07;70.00;100461.34;5035135;28;20040;-74
2020/12/27 00:30:59;;;;;;;9.23;5.07;;;;;;;1.08;69.52;100464.00;5052906;28;20036;-74
2020/12/27 00:33:24;;;;;;;9.60;4.93;;;;;;;1.19;69.39;100448.72;5052856;28;20678;-74
2020/12/27 00:35:49;;;;;;;11.67;5.27;;;;;;;1.22;69.42;100447.94;5035172;28;20426;-75
2020/12/27 00:38:15;;;;;;;11.40;5.33;;;;;;;1.24;69.28;100435.88;5043262;28;20615;-74
2020/12/27 00:40:40;;;;;;;9.30;4.93;;;;;;;1.35;69.04;100434.47;5061576;28;20551;-74
2020/12/27 00:43:05;;;;;;;12.70;5.43;;;;;;;1.38;69.13;100416.34;5052186;28;20514;-74
2020/12/27 00:45:31;;;;;;;7.13;4.20;;;;;;;1.46;68.67;100414.84;5052798;28;20502;-74
2020/12/27 00:47:56;;;;;;;9.17;4.77;;;;;;;1.52;68.00;100416.78;5052726;28;20087;-74
2020/12/27 00:50:22;;;;;;;11.40;4.77;;;;;;;1.53;68.61;100411.59;5034616;28;20082;-74
2020/12/27 00:52:47;;;;;;;7.60;4.37;;;;;;;1.51;68.81;100405.47;5052384;28;20072;-75
2020/12/27 00:55:15;;;;;;;7.97;4.50;;;;;;;1.51;68.76;100404.59;5034771;28;20025;-74
2020/12/27 00:57:40;;;;;;;9.13;4.97;;;;;;;1.43;68.17;100395.69;5034642;28;20116;-74
2020/12/27 01:00:06;;;;;;;8.30;4.80;;;;;;;1.39;68.66;100399.03;5034616;28;20029;-74
2020/12/27 01:02:35;;;;;;;7.93;4.95;;;;;;;1.31;68.67;100389.31;5034351;28;20037;-74
2020/12/27 01:05:19;;;;;;;10.63;4.80;;;;;;;1.28;69.13;100389.22;5046391;28;20469;-74
2020/12/27 01:07:44;;;;;;;9.53;4.93;;;;;;;1.20;68.62;100388.09;5033658;28;20037;-74
2020/12/27 01:10:16;;;;;;;9.82;4.40;;;;;;;1.21;68.63;100378.59;5034285;28;20029;-74
2020/12/27 01:12:42;;;;;;;7.70;4.83;;;;;;;1.18;68.51;100371.59;5034091;28;20548;-74
2020/12/27 01:15:11;;;;;;;9.20;4.80;;;;;;;1.15;68.85;100368.88;5034297;28;20032;-74
2020/12/27 01:17:58;;;;;;;8.43;4.63;;;;;;;1.11;68.71;100367.03;5034265;28;20025;-74
2020/12/27 01:20:24;;;;;;;8.33;4.17;;;;;;;1.09;69.00;100358.31;5034072;28;20040;-74
2020/12/27 01:22:51;;;;;;;12.10;4.80;;;;;;;1.08;69.16;100341.84;5033836;28;20033;-74
2020/12/27 01:25:23;;;;;;;9.18;4.43;;;;;;;1.06;69.02;100340.03;5034077;28;20028;-74
2020/12/27 01:27:49;;;;;;;7.43;4.50;;;;;;;1.00;68.99;100326.88;5051918;28;20090;-74
2020/12/27 01:30:14;;;;;;;8.73;4.60;;;;;;;0.96;69.40;100330.22;5033914;28;20040;-74
2020/12/27 01:32:47;;;;;;;;;;;;;;;0.91;69.75;100324.88;5034154;28;20033;-74
2020/12/27 01:35:12;;;;;;;10.30;4.53;;;;;;;0.90;69.58;100319.66;5033972;28;19936;-74
2020/12/27 01:37:38;;;;;;;11.57;4.77;;;;;;;0.92;69.44;100323.16;5033903;28;20025;-74
2020/12/27 01:40:05;;;;;;;8.77;4.37;;;;;;;0.92;69.76;100317.94;5033731;28;20029;-74
2020/12/27 01:42:30;;;;;;;9.27;4.73;;;;;;;0.90;69.06;100307.53;5033146;28;20547;-74
2020/12/27 01:44:56;;;;;;;10.27;5.40;;;;;;;0.91;68.97;100305.81;5033710;28;20143;-74
2020/12/27 01:47:50;;;;;;;9.73;5.23;;;;;;;0.96;68.81;100297.28;5051390;28;20044;-74
2020/12/27 01:50:16;;;;;;;8.77;4.57;;;;;;;0.96;69.13;100296.44;5017108;28;20036;-74
2020/12/27 01:52:41;;;;;;;8.37;4.97;;;;;;;0.99;69.12;100294.78;5033422;28;20101;-74
2020/12/27 01:55:15;;;;;;;7.67;4.63;;;;;;;1.05;68.43;100281.97;5033623;28;20025;-74
2020/12/27 01:57:54;;;;;;;9.70;4.50;;;;;;;1.09;67.81;100285.53;5030216;28;20032;-74
2020/12/27 02:00:22;;;;;;;9.97;5.53;;;;;;;1.05;68.26;100269.00;5017326;28;20033;-74
2020/12/27 02:03:06;;;;;;;11.23;5.63;;;;;;;1.02;68.70;100262.81;5043837;28;20055;-74
2020/12/27 02:05:32;;;;;;;9.17;4.93;;;;;;;1.02;68.49;100250.72;5033580;28;20064;-74
2020/12/27 02:07:58;;;;;;;9.13;4.60;;;;;;;1.08;68.07;100242.22;5033411;28;20044;-74
2020/12/27 02:10:37;;;;;;;9.87;4.43;;;;;;;1.07;68.15;100236.13;5032755;28;20063;-74
2020/12/27 02:13:03;;;;;;;8.20;4.03;;;;;;;1.08;67.73;100229.22;5046355;28;20029;-74
2020/12/27 02:15:28;;;;;;;7.77;4.40;;;;;;;1.07;68.45;100223.13;5055768;28;20547;-74
2020/12/27 02:18:12;;;;;;;10.20;4.33;;;;;;;1.06;67.66;100220.47;5044622;28;20095;-74
2020/12/27 02:20:39;;;;;;;9.57;4.20;;;;;;;1.06;67.91;100223.09;5033083;28;20067;-74
2020/12/27 02:23:13;;;;;;;9.40;4.13;;;;;;;1.05;67.78;100210.94;5032945;28;20041;-74
2020/12/27 02:25:43;;;;;;;7.97;4.00;;;;;;;1.00;67.71;100203.00;5017311;28;20039;-74
2020/12/27 02:28:16;;;;;;;7.43;4.47;;;;;;;0.99;67.86;100195.16;5033305;28;20041;-75
2020/12/27 02:30:42;;;;;;;8.50;4.00;;;;;;;0.96;68.11;100189.88;5033152;28;20499;-74
2020/12/27 02:33:08;;;;;;;9.70;3.97;;;;;;;0.91;68.35;100175.88;5050794;28;20099;-74
2020/12/27 02:35:35;;;;;;;8.53;4.17;;;;;;;0.81;68.32;100172.16;5051127;28;20037;-74
2020/12/27 02:38:03;;;;;;;8.27;4.17;;;;;;;0.70;69.00;100177.06;5025145;28;20061;-74
2020/12/27 02:40:30;;;;;;;8.83;3.97;;;;;;;0.62;69.39;100169.03;5032970;28;20491;-74
2020/12/27 02:43:18;;;;;;;8.73;3.97;;;;;;;0.54;70.00;100159.28;5044476;28;20156;-73
2020/12/27 02:45:48;;;;;;;7.20;3.57;;;;;;;0.47;69.99;100154.75;5033035;28;20029;-73
2020/12/27 02:48:45;;;;;;;7.23;4.10;;;;;;;0.39;70.13;100150.25;5037423;28;20523;-74
2020/12/27 02:51:20;;;;;;;7.87;4.10;;;;;;;0.31;70.51;100156.91;5033050;28;20043;-74
2020/12/27 02:53:50;;;;;;;6.87;3.93;;;;;;;0.24;70.44;100149.78;5032657;28;20029;-74
2020/12/27 02:56:25;;;;;;;7.70;4.53;;;;;;;0.19;70.92;100139.28;5032986;28;20121;-74
2020/12/27 02:58:51;;;;;;;7.73;3.80;;;;;;;0.12;70.55;100141.63;5016498;28;20033;-73
2020/12/27 03:01:17;;;;;;;6.20;3.37;;;;;;;0.06;70.94;100141.47;5032865;28;20047;-74
2020/12/27 03:04:06;;;;;;;7.50;3.60;;;;;;;0.00;70.87;100139.56;4994785;28;20056;-73
2020/12/27 03:06:35;;;;;;;8.30;4.17;;;;;;;-0.06;71.31;100131.59;5032943;28;20063;-74
2020/12/27 03:09:07;;;;;;;7.00;3.38;;;;;;;-0.11;71.02;100126.25;5032644;28;20051;-74
2020/12/27 03:11:40;;;;;;;5.47;3.27;;;;;;;-0.16;71.77;100125.22;5032762;28;20044;-74
2020/12/27 03:14:08;;;;;;;6.77;3.77;;;;;;;-0.19;71.71;100126.88;5049187;28;20029;-74
2020/12/27 03:16:36;;;;;;;8.93;4.27;;;;;;;-0.23;71.96;100121.59;5032749;28;20414;-72
2020/12/27 03:19:22;;;;;;;7.03;4.13;;;;;;;-0.30;71.38;100111.84;5044691;28;20040;-74
2020/12/27 03:21:58;;;;;;;6.93;3.40;;;;;;;-0.33;71.90;100095.31;5032631;28;20568;-73
2020/12/27 03:24:41;;;;;;;;;;;;;;;-0.45;71.84;100094.13;5019016;28;20025;-74
2020/12/27 03:27:07;;;;;;;7.40;4.17;;;;;;;-0.48;71.64;100085.34;5041075;28;20290;-73
2020/12/27 03:29:32;;;;;;;8.70;3.70;;;;;;;-0.51;72.41;100078.34;5033473;28;20059;-73
2020/12/27 03:31:58;;;;;;;7.87;3.90;;;;;;;-0.52;72.70;100071.44;5036196;28;20495;-74
2020/12/27 03:34:24;;;;;;;8.67;3.90;;;;;;;-0.55;72.73;100063.56;5035944;28;20033;-74
2020/12/27 03:36:50;;;;;;;10.93;4.47;;;;;;;-0.57;72.58;100062.63;5036174;28;20043;-73
2020/12/27 03:39:44;;;;;;;8.77;4.10;;;;;;;-0.63;72.83;100062.41;5053713;28;20041;-74
2020/12/27 03:42:24;;;;;;;6.57;3.83;;;;;;;-0.61;73.19;100055.56;5035826;28;20032;-74
2020/12/27 03:44:57;;;;;;;7.17;3.33;;;;;;;-0.57;72.40;100052.25;5035936;28;20041;-73
2020/12/27 03:47:48;;;;;;;7.40;4.00;;;;;;;-0.55;72.25;100044.50;5039774;28;20033;-74
2020/12/27 03:50:23;;;;;;;7.88;4.40;;;;;;;-0.53;72.44;100043.72;5035771;28;20124;-74
2020/12/27 03:52:56;;;;;;;10.93;4.23;;;;;;;-0.50;72.18;100043.84;5035651;28;20037;-73
2020/12/27 03:55:34;;;;;;;9.83;4.67;;;;;;;-0.48;71.48;100036.97;5035933;28;20044;-74
2020/12/27 03:58:23;;;;;;;7.23;3.67;;;;;;;-0.47;71.46;100024.91;5040058;28;20055;-73
2020/12/27 04:00:52;;;;;;;10.13;4.03;;;;;;;-0.49;71.84;100013.63;5033837;28;20033;-74
2020/12/27 04:03:27;;;;;;;8.97;4.23;;;;;;;-0.48;71.87;100011.06;5035412;28;20065;-73
2020/12/27 04:05:58;;;;;;;7.57;3.77;;;;;;;-0.50;71.19;100015.34;5035740;28;20028;-74
2020/12/27 04:08:29;;;;;;;7.30;4.03;;;;;;;-0.51;71.16;100000.59;5035450;28;20037;-74
2020/12/27 04:10:54;;;;;;;7.90;3.80;;;;;;;-0.51;70.79;99989.34;5035501;28;20372;-74
2020/12/27 04:13:20;;;;;;;7.93;3.63;;;;;;;-0.57;71.25;99992.66;5035285;28;20119;-74
2020/12/27 04:15:53;;;;;;;9.30;4.03;;;;;;;-0.55;71.12;99988.41;5035479;28;20108;-74
2020/12/27 04:18:22;;;;;;;9.33;4.47;;;;;;;-0.54;71.21;99995.31;5035382;28;20037;-74
2020/12/27 04:21:13;;;;;;;7.23;4.17;;;;;;;-0.54;70.92;99992.72;5045742;28;20037;-74
2020/12/27 04:23:39;;;;;;;8.73;4.73;;;;;;;-0.58;71.18;99990.88;5035027;28;20043;-73
2020/12/27 04:26:04;;;;;;;8.17;4.17;;;;;;;-0.60;71.74;99991.66;5035393;28;20032;-74
2020/12/27 04:28:30;;;;;;;7.87;3.70;;;;;;;-0.62;71.94;99996.81;5035194;28;20266;-73
2020/12/27 04:30:55;;;;;;;10.17;4.37;;;;;;;-0.60;72.04;99991.66;5035093;28;20055;-74
2020/12/27 04:33:31;;;;;;;8.10;4.10;;;;;;;-0.64;71.41;99988.09;5034978;28;20036;-73
2020/12/27 04:36:17;;;;;;;8.32;4.30;;;;;;;-0.67;71.67;99990.59;5028530;28;20083;-74
2020/12/27 04:38:43;;;;;;;7.43;3.87;;;;;;;-0.66;71.32;99989.75;5034921;28;20043;-73
2020/12/27 04:41:12;;;;;;;9.63;4.50;;;;;;;-0.64;71.35;99987.22;5034991;28;20055;-74
2020/12/27 04:43:40;;;;;;;9.40;4.37;;;;;;;-0.62;71.34;99981.25;5034648;28;20446;-73
2020/12/27 04:46:06;;;;;;;11.07;4.57;;;;;;;-0.60;70.75;99969.22;5034880;28;20525;-74
2020/12/27 04:48:35;;;;;;;7.10;4.07;;;;;;;-0.61;70.66;99977.81;5034691;28;20040;-73
2020/12/27 04:51:17;;;;;;;10.23;4.10;;;;;;;-0.68;71.32;99978.50;5028384;28;20487;-74
2020/12/27 04:53:49;;;;;;;9.53;4.23;;;;;;;-0.67;70.68;99975.06;5032325;28;20487;-73
2020/12/27 04:56:26;;;;;;;8.77;4.37;;;;;;;-0.65;70.86;99970.81;5044302;28;20037;-74
2020/12/27 04:59:03;;;;;;;8.13;3.67;;;;;;;-0.62;70.29;99970.88;5044565;28;20033;-73
2020/12/27 05:01:30;;;;;;;6.83;3.83;;;;;;;-0.60;69.73;99958.88;5034667;28;20037;-74
2020/12/27 05:04:05;;;;;;;7.90;3.63;;;;;;;-0.58;70.01;99952.00;5026613;28;20028;-73
2020/12/27 05:06:38;;;;;;;6.53;3.53;;;;;;;-0.53;69.54;99944.34;5034511;28;20032;-74
2020/12/27 05:09:08;;;;;;;9.07;3.90;;;;;;;-0.56;68.84;99946.88;5034501;28;20403;-73
2020/12/27 05:11:34;;;;;;;5.73;3.00;;;;;;;-0.57;68.63;99939.94;5034351;28;20063;-74
2020/12/27 05:14:14;;;;;;;5.73;3.27;;;;;;;-0.58;68.36;99931.25;5027852;28;20494;-74
2020/12/27 05:16:53;;;;;;;7.32;2.63;;;;;;;-0.54;67.74;99924.47;5034289;28;20400;-74
2020/12/27 05:19:22;;;;;;;7.67;3.17;;;;;;;-0.54;67.39;99917.56;5034159;28;20029;-74
2020/12/27 05:21:47;;;;;;;7.33;3.53;;;;;;;-0.50;67.42;99908.16;5034105;28;20115;-74
2020/12/27 05:24:33;;;;;;;6.10;3.07;;;;;;;-0.45;66.65;99889.31;5034000;28;20036;-73
2020/12/27 05:27:15;;;;;;;7.77;3.20;;;;;;;-0.43;66.58;99885.88;5027557;28;20055;-74
2020/12/27 05:30:01;;;;;;;6.67;3.10;;;;;;;-0.38;66.29;99881.69;5051071;28;20098;-73
2020/12/27 05:33:16;;;;;;;6.17;3.00;;;;;;;-0.36;65.75;99874.84;5043711;28;20044;-73
2020/12/27 05:36:01;;;;;;;6.03;2.80;;;;;;;-0.34;66.31;99867.97;5051581;28;20045;-74
2020/12/27 05:38:29;;;;;;;6.57;3.03;;;;;;;-0.37;65.66;99858.38;5033905;28;20082;-74
2020/12/27 05:41:28;;;;;;;7.37;3.23;;;;;;;-0.39;65.87;99854.00;5024169;28;20077;-74
2020/12/27 05:44:05;;;;;;;7.80;3.10;;;;;;;-0.37;65.74;99840.25;5025872;28;20407;-73
2020/12/27 05:46:32;;;;;;;5.93;3.20;;;;;;;-0.37;65.44;99832.47;5033821;28;20059;-73
2020/12/27 05:48:59;;;;;;;6.10;3.23;;;;;;;-0.33;65.71;99839.50;5033530;28;20613;-74
2020/12/27 05:51:26;;;;;;;5.97;3.27;;;;;;;-0.34;64.82;99831.66;5033598;28;20086;-74
2020/12/27 05:53:53;;;;;;;6.53;2.73;;;;;;;-0.34;65.52;99824.78;5032965;28;20028;-73
2020/12/27 05:56:26;;;;;;;;;;;;;;;-0.40;65.39;99819.41;5034140;28;20526;-74
2020/12/27 05:59:01;;;;;;;6.20;2.80;;;;;;;-0.37;64.44;99811.72;5033551;28;20272;-73
2020/12/27 06:01:35;;;;;;;6.00;3.00;;;;;;;-0.38;65.28;99812.56;5033518;28;20495;-73
2020/12/27 06:04:04;;;;;;;6.13;3.30;;;;;;;-0.41;64.35;99798.66;5025517;28;20132;-74
2020/12/27 06:06:59;;;;;;;6.50;3.03;;;;;;;-0.38;64.50;99796.16;5031626;28;20036;-73
2020/12/27 06:09:44;;;;;;;7.40;3.17;;;;;;;-0.43;64.75;99797.72;5021656;28;20048;-74
2020/12/27 06:12:13;;;;;;;5.10;2.77;;;;;;;-0.40;64.72;99795.22;5025983;28;20146;-72
2020/12/27 06:14:43;;;;;;;5.27;2.83;;;;;;;-0.40;64.42;99806.47;5033286;28;20021;-73
2020/12/27 06:18:07;;;;;;;7.07;3.30;;;;;;;-0.40;64.19;99798.69;5051148;28;20045;-74
2020/12/27 06:21:05;;;;;;;7.57;3.20;;;;;;;-0.38;64.87;99806.50;5030652;28;20094;-73
2020/12/27 06:23:32;;;;;;;7.37;3.30;;;;;;;-0.43;64.77;99805.50;5032966;28;20037;-74
2020/12/27 06:26:01;;;;;;;7.67;3.27;;;;;;;-0.43;65.07;99784.78;5033246;28;20127;-73
2020/12/27 06:28:31;;;;;;;7.13;4.13;;;;;;;-0.42;64.82;99791.69;5033227;28;20082;-74
2020/12/27 06:31:11;;;;;;;6.95;3.70;;;;;;;-0.45;64.34;99792.50;5025994;28;20057;-73
2020/12/27 06:33:41;;;;;;;6.60;3.57;;;;;;;-0.47;64.33;99789.88;5050905;28;20040;-73
2020/12/27 06:36:32;;;;;;;6.50;3.47;;;;;;;-0.48;64.75;99793.28;5033272;28;20479;-74
2020/12/27 06:38:58;;;;;;;7.47;3.77;;;;;;;-0.45;63.97;99790.81;5032923;28;20180;-74
2020/12/27 06:41:23;;;;;;;7.13;3.67;;;;;;;-0.45;64.89;99783.03;5033236;28;20029;-74
2020/12/27 06:44:39;;;;;;;6.63;3.10;;;;;;;-0.50;64.62;99769.06;5043234;28;20115;-74
2020/12/27 06:47:05;;;;;;;6.93;3.20;;;;;;;-0.48;64.76;99775.16;5038502;28;20187;-73
2020/12/27 06:49:45;;;;;;;7.53;3.40;;;;;;;-0.47;64.00;99768.28;5030251;28;20036;-72
2020/12/27 06:52:24;;;;;;;6.67;3.27;;;;;;;-0.46;63.78;99770.00;5018141;28;20403;-74
2020/12/27 06:55:31;;;;;;;6.50;3.25;;;;;;;-0.45;64.18;99767.47;5044247;28;20037;-73
2020/12/27 06:58:23;;;;;;;5.43;2.90;;;;;;;-0.45;63.60;99770.06;5033011;28;20037;-72
2020/12/27 07:01:08;;;;;;;7.17;3.37;;;;;;;-0.41;63.92;99762.38;5032796;28;20043;-73
2020/12/27 07:03:34;;;;;;;7.27;3.40;;;;;;;-0.40;63.20;99749.41;5050548;28;20033;-73
2020/12/27 07:06:15;;;;;;;7.03;3.10;;;;;;;-0.38;64.15;99749.47;5036017;28;20507;-73
2020/12/27 07:08:43;;;;;;;6.40;3.23;;;;;;;-0.37;63.64;99743.44;5054443;28;20036;-74
2020/12/27 07:11:08;;;;;;;8.10;3.47;;;;;;;-0.38;63.39;99737.38;5054594;28;20029;-73
2020/12/27 07:13:41;;;;;;;5.10;2.80;;;;;;;-0.37;63.55;99740.84;5054422;28;20032;-73
2020/12/27 07:16:10;;;;;;;6.03;2.93;;;;;;;-0.34;63.54;99727.94;5046826;28;20480;-73
2020/12/27 07:18:36;;;;;;;5.43;2.90;;;;;;;-0.32;63.46;99721.09;5054206;28;20036;-73
2020/12/27 07:21:02;;;;;;;5.17;2.80;;;;;;;-0.31;63.84;99728.06;5054424;28;20380;-73
2020/12/27 07:23:32;;;;;;;6.13;3.17;;;;;;;-0.37;63.62;99718.38;5036251;28;20037;-74
2020/12/27 07:26:01;;;;;;;7.20;3.20;;;;;;;-0.40;63.05;99709.66;5054390;28;20036;-73
2020/12/27 07:28:28;;;;;;;5.27;3.07;;;;;;;-0.37;63.74;99701.94;5054369;28;20032;-73
2020/12/27 07:30:59;;;;;;;8.00;3.07;;;;;;;-0.39;63.43;99698.44;5054158;28;20036;-73
2020/12/27 07:33:29;;;;;;;6.93;3.20;;;;;;;-0.38;62.83;99687.25;5053848;28;20067;-74
2020/12/27 07:36:04;;;;;;;6.97;3.53;;;;;;;-0.38;63.02;99685.53;5054110;28;20553;-73
2020/12/27 07:39:03;;;;;;;6.33;3.33;;;;;;;-0.41;63.27;99675.09;5054182;28;20587;-74
2020/12/27 07:41:37;;;;;;;6.13;3.17;;;;;;;-0.41;62.73;99658.66;5028098;28;20034;-74
2020/12/27 07:44:09;;;;;;;6.50;3.13;;;;;;;-0.38;62.94;99661.31;5053694;28;20029;-74
2020/12/27 07:46:34;;;;;;;6.15;3.63;;;;;;;-0.34;63.07;99661.44;5053972;28;20064;-73
2020/12/27 07:48:59;;;;;;;5.93;3.03;;;;;;;-0.28;62.57;99650.34;5053690;28;20068;-73
2020/12/27 07:51:25;;;;;;;7.27;3.60;;;;;;;-0.29;62.73;99653.75;5036099;28;20033;-74
2020/12/27 07:53:52;;;;;;;8.27;3.40;;;;;;;-0.33;62.45;99644.16;5053506;28;20033;-73
2020/12/27 07:56:25;;;;;;;8.13;3.43;;;;;;;-0.28;62.72;99640.84;5053761;28;20044;-74
2020/12/27 07:58:57;;;;;;;5.60;2.73;;;;;;;-0.28;62.64;99639.97;5050973;28;20479;-73
2020/12/27 08:01:35;;;;;;;6.17;3.20;;;;;;;-0.26;62.43;99627.91;5048154;28;20442;-74
2020/12/27 08:04:01;;;;;;;6.43;3.17;;;;;;;-0.20;62.21;99622.84;5053277;28;20049;-74
2020/12/27 08:06:33;;;;;;;8.57;2.80;;;;;;;-0.20;62.07;99607.28;5035747;28;20047;-74
2020/12/27 08:09:07;;;;;;;5.33;2.80;;;;;;;-0.20;62.42;99599.50;5053352;28;20041;-73
2020/12/27 08:11:35;;;;;;;6.10;2.87;;;;;;;-0.20;62.35;99589.16;5053510;28;20025;-73
2020/12/27 08:14:11;;;;;;;6.67;2.93;;;;;;;-0.16;62.27;99588.34;5053195;28;20064;-74
2020/12/27 08:16:38;;;;;;;5.50;3.00;;;;;;;-0.15;62.13;99600.50;5053067;28;20112;-74
2020/12/27 08:19:11;;;;;;;6.03;3.23;;;;;;;-0.12;62.03;99582.41;5045044;28;20028;-74
2020/12/27 08:21:39;;;;;;;6.73;3.37;;;;;;;-0.12;61.89;99595.38;5053413;28;20033;-73
2020/12/27 08:24:05;;;;;;;8.87;3.40;;;;;;;-0.03;61.63;99580.03;5045170;28;20407;-73
2020/12/27 08:26:33;;;;;;;6.93;2.97;;;;;;;0.02;60.98;99574.03;5053212;28;20032;-74
2020/12/27 08:29:25;;;;;;;7.00;2.97;;;;;;;0.02;61.07;99584.41;5053025;28;20601;-74
2020/12/27 08:31:54;;;;;;;5.90;3.03;;;;;;;0.08;60.65;99581.94;5049353;28;20053;-74
2020/12/27 08:34:21;;;;;;;7.63;3.33;;;;;;;0.12;61.17;99578.56;5052884;28;20072;-74
2020/12/27 08:36:52;;;;;;;6.53;3.20;;;;;;;0.18;60.41;99570.91;5052953;28;20032;-74
2020/12/27 08:39:20;;;;;;;6.27;3.30;;;;;;;0.27;60.63;99562.44;5052800;28;20140;-74
2020/12/27 08:41:53;;;;;;;6.77;2.87;;;;;;;0.30;60.60;99553.00;5052798;28;20040;-73
2020/12/27 08:44:45;;;;;;;6.90;2.80;;;;;;;0.33;60.00;99542.66;5052611;28;20048;-74
2020/12/27 08:47:25;;;;;;;6.10;2.90;;;;;;;0.36;59.42;99536.66;5045589;28;20094;-73
2020/12/27 08:50:25;;;;;;;7.87;3.50;;;;;;;0.46;59.78;99532.50;5052700;28;20043;-73
2020/12/27 08:52:59;;;;;;;5.43;2.63;;;;;;;0.52;60.38;99520.50;5052462;28;20043;-72
2020/12/27 08:55:27;;;;;;;5.73;2.90;;;;;;;0.53;59.28;99529.19;5052698;28;20028;-74
2020/12/27 08:57:57;;;;;;;5.00;2.47;;;;;;;0.58;59.50;99517.16;5052565;28;20098;-74
2020/12/27 09:00:31;;;;;;;7.53;3.07;;;;;;;0.62;59.35;99508.56;5052430;28;20423;-73
2020/12/27 09:02:59;;;;;;;5.77;2.80;;;;;;;0.66;58.45;99510.38;5052240;28;20037;-73
2020/12/27 09:05:29;;;;;;;6.17;2.83;;;;;;;0.69;59.00;99505.25;5052430;28;20119;-74
2020/12/27 09:07:55;;;;;;;5.50;2.77;;;;;;;0.64;58.54;99497.34;5034485;28;20056;-74
2020/12/27 09:10:22;;;;;;;5.83;2.60;;;;;;;0.68;58.41;99489.63;5052176;28;20106;-74
2020/12/27 09:12:57;;;;;;;6.43;3.17;;;;;;;0.73;58.25;99487.97;5051990;28;20399;-74
2020/12/27 09:15:28;;;;;;;4.57;2.37;;;;;;;0.79;58.03;99475.09;5052118;28;20060;-74
2020/12/27 09:18:05;;;;;;;5.93;2.80;;;;;;;0.94;57.01;99485.72;5052212;28;20048;-73
2020/12/27 09:20:33;;;;;;;7.37;3.00;;;;;;;0.97;57.24;99490.09;5052123;28;20044;-73
2020/12/27 09:22:59;;;;;;;4.63;2.17;;;;;;;1.04;56.54;99479.81;5051932;28;20503;-74
2020/12/27 09:25:25;;;;;;;4.03;2.00;;;;;;;1.16;56.88;99481.75;5051996;28;20040;-73
2020/12/27 09:27:53;;;;;;;5.40;2.07;;;;;;;1.21;56.01;99495.69;5051174;28;20403;-74
2020/12/27 09:30:21;;;;;;;6.13;2.70;;;;;;;1.32;56.17;99498.44;5034040;28;20033;-73
2020/12/27 09:32:47;;;;;;;4.93;1.77;;;;;;;1.39;55.66;99494.19;5033813;28;20389;-73
2020/12/27 09:35:20;;;;;;;3.93;2.03;;;;;;;1.48;54.96;99494.31;5051883;28;20033;-73
2020/12/27 09:37:46;;;;;;;5.20;1.97;;;;;;;1.57;55.80;99486.63;5051876;28;20534;-73
2020/12/27 09:40:14;;;;;;;4.40;2.10;;;;;;;1.62;55.68;99482.34;5051615;28;20036;-74
2020/12/27 09:42:40;;;;;;;4.07;2.23;;;;;;;1.67;55.39;99482.44;5051458;28;20064;-73
2020/12/27 09:45:17;;;;;;;4.67;1.90;;;;;;;1.75;55.37;99460.84;5051629;28;20052;-74
2020/12/27 09:47:52;;;;;;;5.73;1.93;;;;;;;1.82;55.26;99453.13;5051667;28;20033;-74
2020/12/27 09:50:34;;;;;;;3.85;1.88;;;;;;;1.75;53.17;99439.16;5051585;28;20045;-73
2020/12/27 09:53:00;;;;;;;3.80;1.40;;;;;;;1.88;54.68;99416.78;5051335;28;20562;-74
2020/12/27 09:55:26;;;;;;;5.90;2.07;;;;;;;1.82;52.80;99412.38;5051612;28;20144;-74
2020/12/27 09:57:52;;;;;;;3.00;1.50;;;;;;;1.94;53.20;99393.44;5051592;28;20135;-74
2020/12/27 10:00:17;;;;;;;4.28;1.50;;;;;;;2.00;52.87;99390.03;5051279;28;20499;-74
2020/12/27 10:02:43;;;;;;;4.43;1.65;;;;;;;2.00;52.52;99390.88;5051205;28;20043;-73
2020/12/27 10:05:09;;;;;;;3.33;1.20;;;;;;;2.03;52.30;99374.44;5051385;28;20103;-74
2020/12/27 10:07:34;;;;;;;4.17;1.57;;;;;;;2.07;52.03;99379.69;5040729;28;20552;-74
2020/12/27 10:10:00;;;;;;;3.47;1.40;;;;;;;2.03;50.90;99380.50;5051186;28;20029;-73
2020/12/27 10:12:25;;;;;;;2.53;1.20;;;;;;;2.14;51.81;99367.59;5051129;28;20155;-74
2020/12/27 10:14:51;;;;;;;3.13;1.30;;;;;;;2.18;50.84;99370.25;5051263;28;20061;-74
2020/12/27 10:17:16;;;;;;;3.10;1.48;;;;;;;2.23;51.09;99372.00;5051231;28;20041;-73
2020/12/27 10:19:42;;;;;;;4.18;1.38;;;;;;;2.33;51.02;99377.31;5051078;28;20033;-73
2020/12/27 10:22:07;;;;;;;5.13;2.27;;;;;;;2.34;51.54;99373.00;5050997;28;20031;-74
2020/12/27 10:24:33;;;;;;;5.18;2.42;;;;;;;2.36;51.06;99373.88;5051018;28;20031;-73
2020/12/27 10:27:03;;;;;;;6.72;2.85;;;;;;;2.42;50.93;99363.50;5051172;28;20430;-74
2020/12/27 10:29:29;;;;;;;3.50;1.75;;;;;;;2.57;51.95;99348.00;5050987;28;20041;-74
2020/12/27 10:32:03;;;;;;;2.92;1.23;;;;;;;2.68;51.55;99342.00;5033290;28;20037;-74
2020/12/27 10:34:29;;;;;;;4.05;1.60;;;;;;;2.77;51.34;99332.47;5050896;28;20075;-74
2020/12/27 10:36:56;;;;;;;4.18;1.73;;;;;;;2.82;52.28;99322.09;5051063;28;20128;-74
2020/12/27 10:39:22;;;;;;;4.20;1.90;;;;;;;2.80;50.98;99305.56;5053293;28;20032;-74
2020/12/27 10:41:49;;;;;;;3.30;1.42;;;;;;;2.85;51.47;99301.25;5055151;28;20085;-74
2020/12/27 10:44:15;;;;;;;5.63;2.13;;;;;;;2.85;50.99;99296.03;5054773;28;20040;-74
2020/12/27 10:46:41;;;;;;;5.40;1.80;;;;;;;2.85;51.54;99283.88;5055040;28;20029;-74
2020/12/27 10:49:07;;;;;;;5.05;2.42;;;;;;;2.88;51.73;99279.53;5054885;28;20108;-73
2020/12/27 10:51:39;;;;;;;4.82;2.17;;;;;;;2.84;51.37;99273.47;5054896;28;20025;-74
2020/12/27 10:54:06;;;;;;;6.47;2.28;;;;;;;2.80;51.21;99266.47;5046686;28;20087;-74
2020/12/27 10:56:32;;;;;;;5.82;2.15;;;;;;;2.70;50.96;99269.91;5054928;28;20045;-74
2020/12/27 10:58:57;;;;;;;5.65;2.08;;;;;;;2.55;50.33;99266.34;5059280;28;20155;-73
2020/12/27 11:01:23;;;;;;;4.53;2.13;;;;;;;2.54;50.39;99264.63;5048740;28;20037;-74
2020/12/27 11:03:48;;;;;;;5.05;2.28;;;;;;;2.54;50.35;99254.22;5054419;28;20036;-73
2020/12/27 11:06:14;;;;;;;5.40;2.10;;;;;;;2.53;50.59;99247.25;5054649;28;20035;-74
2020/12/27 11:08:39;;;;;;;4.97;2.30;;;;;;;2.53;51.23;99242.03;5054386;28;20057;-73
2020/12/27 11:11:05;;;;;;;4.53;2.15;;;;;;;2.52;51.86;99242.91;5054697;28;20029;-73
2020/12/27 11:13:30;;;;;;;5.85;2.10;;;;;;;2.43;50.24;99216.81;5054271;28;20123;-74
2020/12/27 11:15:55;;;;;;;5.20;2.00;;;;;;;2.43;51.16;99222.00;5054536;28;20105;-74
2020/12/27 11:18:21;;;;;;;6.35;2.40;;;;;;;2.50;51.18;99220.31;5036492;28;20037;-73
2020/12/27 11:20:46;;;;;;;6.72;2.20;;;;;;;2.47;50.71;99220.31;5054381;28;20032;-73
2020/12/27 11:23:12;;;;;;;5.75;2.22;;;;;;;2.46;50.32;99218.56;5054174;28;20033;-74
2020/12/27 11:25:37;;;;;;;6.68;2.25;;;;;;;2.48;50.92;99209.03;5054231;28;20120;-74
2020/12/27 11:28:03;;;;;;;4.63;2.00;;;;;;;2.44;50.71;99204.66;5054128;28;20124;-74
2020/12/27 11:30:28;;;;;;;8.23;2.22;;;;;;;2.46;50.77;99214.22;5054133;28;20079;-74
2020/12/27 11:32:54;;;;;;;4.60;2.35;;;;;;;2.43;49.95;99203.78;5053921;28;20048;-73
2020/12/27 11:35:19;;;;;;;7.18;2.60;;;;;;;2.46;50.40;99203.78;5054086;28;20068;-74
2020/12/27 11:37:45;;;;;;;5.75;2.45;;;;;;;2.49;50.03;99201.22;5054201;28;20052;-74
2020/12/27 11:40:10;;;;;;;11.23;5.88;;;;;;;2.47;50.85;99189.94;5053986;28;20040;-74
2020/12/27 11:42:36;;;;;;;7.60;3.47;;;;;;;2.46;50.59;99182.94;5053632;28;20384;-73
2020/12/27 11:45:03;;;;;;;6.88;2.45;;;;;;;2.46;50.28;99175.16;5053968;28;20043;-74
2020/12/27 11:47:28;;;;;;;6.75;2.65;;;;;;;2.45;50.14;99172.56;5053945;28;20420;-73
2020/12/27 11:49:53;;;;;;;5.78;2.15;;;;;;;2.49;50.65;99158.66;5053168;28;20025;-74
2020/12/27 11:52:19;;;;;;;5.15;2.25;;;;;;;2.42;49.69;99143.03;5053534;28;20069;-73
2020/12/27 11:54:44;;;;;;;7.15;2.42;;;;;;;2.49;50.50;99141.31;5053810;28;20075;-74
2020/12/27 11:57:09;;;;;;;5.53;2.20;;;;;;;2.53;50.10;99137.00;5034154;28;20073;-74